sensor_id;sensor_type;location;lat;lon;timestamp;P1;durP1;ratioP1;P2;durP2;ratioP2
4547;SDS011;2286;51.570;7.090;2023-02-01T00:01:30;29.83;;;15.97;;
4547;SDS011;2286;51.570;7.090;2023-02-01T00:03:57;30.13;;;14.57;;
4547;SDS011;2286;51.570;7.090;2023-02-01T00:06:24;26.48;;;13.48;;
4547;SDS011;2286;51.570;7.090;2023-02-01T00:08:52;29.00;;;13.40;;
4547;SDS011;2286;51.570;7.090;2023-02-01T00:11:20;26.73;;;12.80;;
4547;SDS011;2286;51.570;7.090;2023-02-01T00:13:47;21.23;;;11.40;;
4547;SDS011;2286;51.570;7.090;2023-02-01T00:16:16;29.90;;;10.73;;
4547;SDS011;2286;51.570;7.090;2023-02-01T00:18:46;21.10;;;9.27;;
4547;SDS011;2286;51.570;7.090;2023-02-01T00:21:15;16.87;;;7.60;;
4547;SDS011;2286;51.570;7.090;2023-02-01T00:23:43;19.23;;;7.72;;
4547;SDS011;2286;51.570;7.090;2023-02-01T00:26:11;16.87;;;6.40;;
4547;SDS011;2286;51.570;7.090;2023-02-01T00:28:40;23.57;;;6.80;;
4547;SDS011;2286;51.570;7.090;2023-02-01T00:31:07;17.87;;;7.97;;
4547;SDS011;2286;51.570;7.090;2023-02-01T00:33:34;14.90;;;6.60;;
4547;SDS011;2286;51.570;7.090;2023-02-01T00:36:03;13.60;;;5.70;;
4547;SDS011;2286;51.570;7.090;2023-02-01T00:38:32;13.67;;;5.60;;
4547;SDS011;2286;51.570;7.090;2023-02-01T00:41:04;16.00;;;6.20;;
4547;SDS011;2286;51.570;7.090;2023-02-01T00:43:33;18.13;;;4.93;;
4547;SDS011;2286;51.570;7.090;2023-02-01T00:46:00;14.90;;;5.40;;
4547;SDS011;2286;51.570;7.090;2023-02-01T00:48:28;12.50;;;4.50;;
4547;SDS011;2286;51.570;7.090;2023-02-01T00:50:58;16.90;;;6.10;;
4547;SDS011;2286;51.570;7.090;2023-02-01T00:53:26;12.53;;;4.37;;
4547;SDS011;2286;51.570;7.090;2023-02-01T00:55:54;13.97;;;4.70;;
4547;SDS011;2286;51.570;7.090;2023-02-01T00:58:21;13.63;;;4.83;;
4547;SDS011;2286;51.570;7.090;2023-02-01T01:00:49;16.67;;;4.70;;
4547;SDS011;2286;51.570;7.090;2023-02-01T01:03:16;17.10;;;5.13;;
4547;SDS011;2286;51.570;7.090;2023-02-01T01:05:46;11.13;;;5.40;;
4547;SDS011;2286;51.570;7.090;2023-02-01T01:08:13;12.50;;;4.40;;
4547;SDS011;2286;51.570;7.090;2023-02-01T01:10:42;11.83;;;4.90;;
4547;SDS011;2286;51.570;7.090;2023-02-01T01:13:09;15.60;;;4.77;;
4547;SDS011;2286;51.570;7.090;2023-02-01T01:15:37;11.20;;;4.17;;
4547;SDS011;2286;51.570;7.090;2023-02-01T01:18:04;20.87;;;5.30;;
4547;SDS011;2286;51.570;7.090;2023-02-01T01:20:33;15.43;;;4.10;;
4547;SDS011;2286;51.570;7.090;2023-02-01T01:23:01;19.40;;;5.13;;
4547;SDS011;2286;51.570;7.090;2023-02-01T01:25:29;14.40;;;5.37;;
4547;SDS011;2286;51.570;7.090;2023-02-01T01:27:57;21.53;;;7.27;;
4547;SDS011;2286;51.570;7.090;2023-02-01T01:30:24;13.93;;;5.00;;
4547;SDS011;2286;51.570;7.090;2023-02-01T01:32:51;12.13;;;4.47;;
4547;SDS011;2286;51.570;7.090;2023-02-01T01:35:18;21.87;;;6.53;;
4547;SDS011;2286;51.570;7.090;2023-02-01T01:37:45;15.77;;;5.10;;
4547;SDS011;2286;51.570;7.090;2023-02-01T01:40:12;16.10;;;5.83;;
4547;SDS011;2286;51.570;7.090;2023-02-01T01:42:40;14.30;;;6.20;;
4547;SDS011;2286;51.570;7.090;2023-02-01T01:45:16;16.57;;;5.20;;
4547;SDS011;2286;51.570;7.090;2023-02-01T01:47:48;9.40;;;5.00;;
4547;SDS011;2286;51.570;7.090;2023-02-01T01:50:19;11.90;;;4.50;;
4547;SDS011;2286;51.570;7.090;2023-02-01T01:52:50;14.30;;;5.60;;
4547;SDS011;2286;51.570;7.090;2023-02-01T01:55:20;15.63;;;4.67;;
4547;SDS011;2286;51.570;7.090;2023-02-01T01:57:50;11.83;;;4.97;;
4547;SDS011;2286;51.570;7.090;2023-02-01T02:00:22;17.87;;;5.07;;
4547;SDS011;2286;51.570;7.090;2023-02-01T02:02:52;20.93;;;6.50;;
4547;SDS011;2286;51.570;7.090;2023-02-01T02:05:23;14.93;;;5.73;;
4547;SDS011;2286;51.570;7.090;2023-02-01T02:07:50;15.50;;;6.30;;
4547;SDS011;2286;51.570;7.090;2023-02-01T02:10:22;19.03;;;5.97;;
4547;SDS011;2286;51.570;7.090;2023-02-01T02:13:10;11.37;;;5.30;;
4547;SDS011;2286;51.570;7.090;2023-02-01T02:15:40;12.00;;;5.40;;
4547;SDS011;2286;51.570;7.090;2023-02-01T02:18:13;13.03;;;5.60;;
4547;SDS011;2286;51.570;7.090;2023-02-01T02:20:47;19.93;;;6.30;;
4547;SDS011;2286;51.570;7.090;2023-02-01T02:23:33;13.70;;;4.93;;
4547;SDS011;2286;51.570;7.090;2023-02-01T02:26:39;18.80;;;6.00;;
4547;SDS011;2286;51.570;7.090;2023-02-01T02:32:39;15.87;;;5.87;;
4547;SDS011;2286;51.570;7.090;2023-02-01T02:35:27;18.87;;;5.97;;
4547;SDS011;2286;51.570;7.090;2023-02-01T02:38:02;12.87;;;5.07;;
4547;SDS011;2286;51.570;7.090;2023-02-01T02:40:41;22.77;;;6.63;;
4547;SDS011;2286;51.570;7.090;2023-02-01T02:43:15;12.20;;;4.33;;
4547;SDS011;2286;51.570;7.090;2023-02-01T02:46:05;14.30;;;4.60;;
4547;SDS011;2286;51.570;7.090;2023-02-01T02:48:54;17.17;;;5.10;;
4547;SDS011;2286;51.570;7.090;2023-02-01T02:51:29;14.30;;;5.43;;
4547;SDS011;2286;51.570;7.090;2023-02-01T02:54:17;19.23;;;4.80;;
4547;SDS011;2286;51.570;7.090;2023-02-01T02:57:06;15.77;;;4.30;;
4547;SDS011;2286;51.570;7.090;2023-02-01T02:59:53;11.53;;;4.03;;
4547;SDS011;2286;51.570;7.090;2023-02-01T03:02:41;15.70;;;4.90;;
4547;SDS011;2286;51.570;7.090;2023-02-01T03:05:31;15.90;;;5.33;;
4547;SDS011;2286;51.570;7.090;2023-02-01T03:08:04;15.60;;;4.30;;
4547;SDS011;2286;51.570;7.090;2023-02-01T03:10:39;14.67;;;4.77;;
4547;SDS011;2286;51.570;7.090;2023-02-01T03:13:11;17.73;;;4.30;;
4547;SDS011;2286;51.570;7.090;2023-02-01T03:15:41;16.10;;;4.40;;
4547;SDS011;2286;51.570;7.090;2023-02-01T03:18:15;19.23;;;5.20;;
4547;SDS011;2286;51.570;7.090;2023-02-01T03:20:47;15.30;;;3.90;;
4547;SDS011;2286;51.570;7.090;2023-02-01T03:23:19;18.93;;;4.37;;
4547;SDS011;2286;51.570;7.090;2023-02-01T03:25:50;16.50;;;5.70;;
4547;SDS011;2286;51.570;7.090;2023-02-01T03:28:20;11.23;;;3.67;;
4547;SDS011;2286;51.570;7.090;2023-02-01T03:30:52;13.43;;;5.00;;
4547;SDS011;2286;51.570;7.090;2023-02-01T03:33:20;22.13;;;4.83;;
4547;SDS011;2286;51.570;7.090;2023-02-01T03:35:54;16.67;;;6.00;;
4547;SDS011;2286;51.570;7.090;2023-02-01T03:38:28;15.90;;;6.13;;
4547;SDS011;2286;51.570;7.090;2023-02-01T03:41:00;18.37;;;5.70;;
4547;SDS011;2286;51.570;7.090;2023-02-01T03:43:36;16.63;;;4.90;;
4547;SDS011;2286;51.570;7.090;2023-02-01T03:46:12;16.93;;;4.80;;
4547;SDS011;2286;51.570;7.090;2023-02-01T03:48:46;16.97;;;4.43;;
4547;SDS011;2286;51.570;7.090;2023-02-01T03:51:15;16.43;;;4.83;;
4547;SDS011;2286;51.570;7.090;2023-02-01T03:53:46;16.57;;;4.00;;
4547;SDS011;2286;51.570;7.090;2023-02-01T03:56:14;14.27;;;4.10;;
4547;SDS011;2286;51.570;7.090;2023-02-01T03:58:44;25.77;;;4.87;;
4547;SDS011;2286;51.570;7.090;2023-02-01T04:01:23;13.40;;;4.80;;
4547;SDS011;2286;51.570;7.090;2023-02-01T04:03:51;18.10;;;5.47;;
4547;SDS011;2286;51.570;7.090;2023-02-01T04:06:18;18.90;;;5.37;;
4547;SDS011;2286;51.570;7.090;2023-02-01T04:08:44;18.73;;;5.77;;
4547;SDS011;2286;51.570;7.090;2023-02-01T04:11:13;17.50;;;4.63;;
4547;SDS011;2286;51.570;7.090;2023-02-01T04:13:39;19.70;;;4.50;;
4547;SDS011;2286;51.570;7.090;2023-02-01T04:16:06;10.70;;;3.70;;
4547;SDS011;2286;51.570;7.090;2023-02-01T04:18:33;16.90;;;5.10;;
4547;SDS011;2286;51.570;7.090;2023-02-01T04:21:00;18.10;;;5.90;;
4547;SDS011;2286;51.570;7.090;2023-02-01T04:23:27;11.70;;;4.90;;
4547;SDS011;2286;51.570;7.090;2023-02-01T04:25:59;12.60;;;4.00;;
4547;SDS011;2286;51.570;7.090;2023-02-01T04:28:26;14.10;;;4.50;;
4547;SDS011;2286;51.570;7.090;2023-02-01T04:30:54;18.73;;;4.40;;
4547;SDS011;2286;51.570;7.090;2023-02-01T04:33:21;15.53;;;5.90;;
4547;SDS011;2286;51.570;7.090;2023-02-01T04:35:48;22.73;;;5.10;;
4547;SDS011;2286;51.570;7.090;2023-02-01T04:38:15;18.87;;;4.53;;
4547;SDS011;2286;51.570;7.090;2023-02-01T04:40:41;11.97;;;4.70;;
4547;SDS011;2286;51.570;7.090;2023-02-01T04:43:10;15.00;;;4.53;;
4547;SDS011;2286;51.570;7.090;2023-02-01T04:45:36;26.80;;;5.50;;
4547;SDS011;2286;51.570;7.090;2023-02-01T04:48:03;28.17;;;5.20;;
4547;SDS011;2286;51.570;7.090;2023-02-01T04:50:31;16.13;;;5.30;;
4547;SDS011;2286;51.570;7.090;2023-02-01T04:52:57;18.60;;;5.97;;
4547;SDS011;2286;51.570;7.090;2023-02-01T04:55:24;14.20;;;5.50;;
4547;SDS011;2286;51.570;7.090;2023-02-01T04:57:51;18.70;;;5.13;;
4547;SDS011;2286;51.570;7.090;2023-02-01T05:00:19;16.80;;;4.63;;
4547;SDS011;2286;51.570;7.090;2023-02-01T05:02:47;18.30;;;5.00;;
4547;SDS011;2286;51.570;7.090;2023-02-01T05:05:14;13.40;;;4.50;;
4547;SDS011;2286;51.570;7.090;2023-02-01T05:07:40;13.40;;;4.20;;
4547;SDS011;2286;51.570;7.090;2023-02-01T05:10:08;16.60;;;4.93;;
4547;SDS011;2286;51.570;7.090;2023-02-01T05:12:35;20.03;;;4.67;;
4547;SDS011;2286;51.570;7.090;2023-02-01T05:15:20;14.98;;;5.30;;
4547;SDS011;2286;51.570;7.090;2023-02-01T05:17:47;11.57;;;4.90;;
4547;SDS011;2286;51.570;7.090;2023-02-01T05:20:14;16.37;;;5.23;;
4547;SDS011;2286;51.570;7.090;2023-02-01T05:22:41;12.67;;;4.47;;
4547;SDS011;2286;51.570;7.090;2023-02-01T05:25:08;19.57;;;5.47;;
4547;SDS011;2286;51.570;7.090;2023-02-01T05:27:35;18.23;;;6.03;;
4547;SDS011;2286;51.570;7.090;2023-02-01T05:30:02;15.57;;;4.90;;
4547;SDS011;2286;51.570;7.090;2023-02-01T05:32:31;15.20;;;4.57;;
4547;SDS011;2286;51.570;7.090;2023-02-01T05:34:58;21.90;;;5.97;;
4547;SDS011;2286;51.570;7.090;2023-02-01T05:37:24;27.77;;;5.23;;
4547;SDS011;2286;51.570;7.090;2023-02-01T05:39:51;23.00;;;5.50;;
4547;SDS011;2286;51.570;7.090;2023-02-01T05:42:18;10.97;;;3.90;;
4547;SDS011;2286;51.570;7.090;2023-02-01T05:44:45;18.30;;;5.87;;
4547;SDS011;2286;51.570;7.090;2023-02-01T05:47:12;18.30;;;5.83;;
4547;SDS011;2286;51.570;7.090;2023-02-01T05:49:40;18.47;;;4.83;;
4547;SDS011;2286;51.570;7.090;2023-02-01T05:52:07;23.23;;;5.27;;
4547;SDS011;2286;51.570;7.090;2023-02-01T05:54:34;14.63;;;4.07;;
4547;SDS011;2286;51.570;7.090;2023-02-01T05:57:00;18.07;;;4.90;;
4547;SDS011;2286;51.570;7.090;2023-02-01T05:59:27;21.40;;;5.70;;
4547;SDS011;2286;51.570;7.090;2023-02-01T06:01:54;25.57;;;4.80;;
4547;SDS011;2286;51.570;7.090;2023-02-01T06:04:21;14.40;;;4.83;;
4547;SDS011;2286;51.570;7.090;2023-02-01T06:06:49;13.60;;;5.17;;
4547;SDS011;2286;51.570;7.090;2023-02-01T06:09:16;21.30;;;5.67;;
4547;SDS011;2286;51.570;7.090;2023-02-01T06:11:43;20.77;;;4.90;;
4547;SDS011;2286;51.570;7.090;2023-02-01T06:14:10;22.10;;;5.97;;
4547;SDS011;2286;51.570;7.090;2023-02-01T06:16:36;21.23;;;4.90;;
4547;SDS011;2286;51.570;7.090;2023-02-01T06:19:03;14.63;;;5.03;;
4547;SDS011;2286;51.570;7.090;2023-02-01T06:21:30;17.37;;;5.20;;
4547;SDS011;2286;51.570;7.090;2023-02-01T06:23:59;20.40;;;6.10;;
4547;SDS011;2286;51.570;7.090;2023-02-01T06:26:26;17.30;;;5.23;;
4547;SDS011;2286;51.570;7.090;2023-02-01T06:28:54;21.27;;;5.93;;
4547;SDS011;2286;51.570;7.090;2023-02-01T06:31:21;16.23;;;4.83;;
4547;SDS011;2286;51.570;7.090;2023-02-01T06:33:50;16.43;;;4.77;;
4547;SDS011;2286;51.570;7.090;2023-02-01T06:36:18;19.45;;;5.18;;
4547;SDS011;2286;51.570;7.090;2023-02-01T06:38:46;19.43;;;4.67;;
4547;SDS011;2286;51.570;7.090;2023-02-01T06:41:14;15.00;;;4.40;;
4547;SDS011;2286;51.570;7.090;2023-02-01T06:43:41;16.98;;;5.10;;
4547;SDS011;2286;51.570;7.090;2023-02-01T06:46:09;20.60;;;5.73;;
4547;SDS011;2286;51.570;7.090;2023-02-01T06:48:38;16.17;;;5.30;;
4547;SDS011;2286;51.570;7.090;2023-02-01T06:51:05;22.63;;;4.90;;
4547;SDS011;2286;51.570;7.090;2023-02-01T06:53:41;18.70;;;6.00;;
4547;SDS011;2286;51.570;7.090;2023-02-01T06:56:08;23.73;;;4.70;;
4547;SDS011;2286;51.570;7.090;2023-02-01T06:58:37;20.90;;;5.30;;
4547;SDS011;2286;51.570;7.090;2023-02-01T07:01:04;18.60;;;4.63;;
4547;SDS011;2286;51.570;7.090;2023-02-01T07:03:32;15.23;;;5.67;;
4547;SDS011;2286;51.570;7.090;2023-02-01T07:05:59;18.93;;;5.90;;
4547;SDS011;2286;51.570;7.090;2023-02-01T07:08:26;20.43;;;5.60;;
4547;SDS011;2286;51.570;7.090;2023-02-01T07:10:53;18.70;;;5.23;;
4547;SDS011;2286;51.570;7.090;2023-02-01T07:13:20;20.47;;;5.87;;
4547;SDS011;2286;51.570;7.090;2023-02-01T07:15:48;20.90;;;5.30;;
4547;SDS011;2286;51.570;7.090;2023-02-01T07:18:15;17.83;;;5.00;;
4547;SDS011;2286;51.570;7.090;2023-02-01T07:20:42;17.50;;;5.13;;
4547;SDS011;2286;51.570;7.090;2023-02-01T07:23:09;12.53;;;4.40;;
4547;SDS011;2286;51.570;7.090;2023-02-01T07:25:36;19.90;;;5.73;;
4547;SDS011;2286;51.570;7.090;2023-02-01T07:28:03;20.17;;;5.33;;
4547;SDS011;2286;51.570;7.090;2023-02-01T07:30:30;14.20;;;5.20;;
4547;SDS011;2286;51.570;7.090;2023-02-01T07:32:58;19.55;;;6.25;;
4547;SDS011;2286;51.570;7.090;2023-02-01T07:35:26;19.07;;;5.30;;
4547;SDS011;2286;51.570;7.090;2023-02-01T07:37:52;18.97;;;5.30;;
4547;SDS011;2286;51.570;7.090;2023-02-01T07:40:19;18.37;;;5.23;;
4547;SDS011;2286;51.570;7.090;2023-02-01T07:42:50;18.17;;;5.90;;
4547;SDS011;2286;51.570;7.090;2023-02-01T07:45:17;21.93;;;5.33;;
4547;SDS011;2286;51.570;7.090;2023-02-01T07:47:45;14.63;;;4.72;;
4547;SDS011;2286;51.570;7.090;2023-02-01T07:50:13;19.27;;;5.77;;
4547;SDS011;2286;51.570;7.090;2023-02-01T07:52:40;21.10;;;7.07;;
4547;SDS011;2286;51.570;7.090;2023-02-01T07:55:07;17.17;;;5.00;;
4547;SDS011;2286;51.570;7.090;2023-02-01T07:57:34;18.70;;;6.70;;
4547;SDS011;2286;51.570;7.090;2023-02-01T08:00:02;23.47;;;6.47;;
4547;SDS011;2286;51.570;7.090;2023-02-01T08:02:46;16.27;;;5.20;;
4547;SDS011;2286;51.570;7.090;2023-02-01T08:05:14;21.73;;;5.80;;
4547;SDS011;2286;51.570;7.090;2023-02-01T08:07:41;20.00;;;6.17;;
4547;SDS011;2286;51.570;7.090;2023-02-01T08:10:08;15.07;;;5.03;;
4547;SDS011;2286;51.570;7.090;2023-02-01T08:12:36;21.80;;;6.20;;
4547;SDS011;2286;51.570;7.090;2023-02-01T08:15:03;15.93;;;5.63;;
4547;SDS011;2286;51.570;7.090;2023-02-01T08:17:31;25.53;;;6.63;;
4547;SDS011;2286;51.570;7.090;2023-02-01T08:19:58;18.53;;;6.30;;
4547;SDS011;2286;51.570;7.090;2023-02-01T08:22:26;15.90;;;5.13;;
4547;SDS011;2286;51.570;7.090;2023-02-01T08:24:57;22.50;;;6.57;;
4547;SDS011;2286;51.570;7.090;2023-02-01T08:27:26;25.43;;;6.67;;
4547;SDS011;2286;51.570;7.090;2023-02-01T08:29:53;23.50;;;5.63;;
4547;SDS011;2286;51.570;7.090;2023-02-01T08:32:20;19.23;;;6.70;;
4547;SDS011;2286;51.570;7.090;2023-02-01T08:34:46;20.23;;;5.67;;
4547;SDS011;2286;51.570;7.090;2023-02-01T08:37:13;20.43;;;5.87;;
4547;SDS011;2286;51.570;7.090;2023-02-01T08:39:41;21.37;;;6.87;;
4547;SDS011;2286;51.570;7.090;2023-02-01T08:42:09;19.43;;;6.13;;
4547;SDS011;2286;51.570;7.090;2023-02-01T08:44:53;24.07;;;6.43;;
4547;SDS011;2286;51.570;7.090;2023-02-01T08:47:20;24.10;;;6.50;;
4547;SDS011;2286;51.570;7.090;2023-02-01T08:49:47;23.87;;;6.97;;
4547;SDS011;2286;51.570;7.090;2023-02-01T08:52:14;18.30;;;5.70;;
4547;SDS011;2286;51.570;7.090;2023-02-01T08:54:42;17.60;;;6.17;;
4547;SDS011;2286;51.570;7.090;2023-02-01T08:57:09;21.13;;;6.80;;
4547;SDS011;2286;51.570;7.090;2023-02-01T08:59:35;24.50;;;6.97;;
4547;SDS011;2286;51.570;7.090;2023-02-01T09:02:02;23.73;;;6.83;;
4547;SDS011;2286;51.570;7.090;2023-02-01T09:04:29;23.73;;;6.83;;
4547;SDS011;2286;51.570;7.090;2023-02-01T09:06:56;17.13;;;5.93;;
4547;SDS011;2286;51.570;7.090;2023-02-01T09:09:23;20.33;;;6.47;;
4547;SDS011;2286;51.570;7.090;2023-02-01T09:11:51;19.00;;;5.80;;
4547;SDS011;2286;51.570;7.090;2023-02-01T09:14:18;22.17;;;6.17;;
4547;SDS011;2286;51.570;7.090;2023-02-01T09:16:45;17.67;;;5.80;;
4547;SDS011;2286;51.570;7.090;2023-02-01T09:19:11;16.90;;;5.80;;
4547;SDS011;2286;51.570;7.090;2023-02-01T09:21:38;25.77;;;6.70;;
4547;SDS011;2286;51.570;7.090;2023-02-01T09:24:05;15.50;;;6.10;;
4547;SDS011;2286;51.570;7.090;2023-02-01T09:26:32;21.30;;;6.10;;
4547;SDS011;2286;51.570;7.090;2023-02-01T09:29:00;23.47;;;6.17;;
4547;SDS011;2286;51.570;7.090;2023-02-01T09:31:28;28.50;;;8.00;;
4547;SDS011;2286;51.570;7.090;2023-02-01T09:33:55;16.67;;;5.87;;
4547;SDS011;2286;51.570;7.090;2023-02-01T09:36:22;16.03;;;5.93;;
4547;SDS011;2286;51.570;7.090;2023-02-01T09:38:49;25.90;;;8.57;;
4547;SDS011;2286;51.570;7.090;2023-02-01T09:41:20;18.90;;;6.70;;
4547;SDS011;2286;51.570;7.090;2023-02-01T09:44:08;22.87;;;5.70;;
4547;SDS011;2286;51.570;7.090;2023-02-01T09:46:49;20.33;;;6.10;;
4547;SDS011;2286;51.570;7.090;2023-02-01T09:49:22;17.53;;;6.13;;
4547;SDS011;2286;51.570;7.090;2023-02-01T09:51:53;23.70;;;5.97;;
4547;SDS011;2286;51.570;7.090;2023-02-01T09:54:22;20.60;;;6.80;;
4547;SDS011;2286;51.570;7.090;2023-02-01T09:59:31;16.40;;;6.10;;
4547;SDS011;2286;51.570;7.090;2023-02-01T10:02:05;18.33;;;6.47;;
4547;SDS011;2286;51.570;7.090;2023-02-01T10:04:40;20.00;;;6.67;;
4547;SDS011;2286;51.570;7.090;2023-02-01T10:07:10;21.87;;;6.17;;
4547;SDS011;2286;51.570;7.090;2023-02-01T10:09:52;28.70;;;7.10;;
4547;SDS011;2286;51.570;7.090;2023-02-01T10:12:32;23.00;;;6.90;;
4547;SDS011;2286;51.570;7.090;2023-02-01T10:15:19;23.63;;;8.77;;
4547;SDS011;2286;51.570;7.090;2023-02-01T10:17:57;24.00;;;8.00;;
4547;SDS011;2286;51.570;7.090;2023-02-01T10:20:45;16.20;;;6.50;;
4547;SDS011;2286;51.570;7.090;2023-02-01T10:23:24;17.90;;;7.17;;
4547;SDS011;2286;51.570;7.090;2023-02-01T10:26:12;19.23;;;5.60;;
4547;SDS011;2286;51.570;7.090;2023-02-01T10:28:46;17.60;;;5.60;;
4547;SDS011;2286;51.570;7.090;2023-02-01T10:31:17;14.90;;;5.53;;
4547;SDS011;2286;51.570;7.090;2023-02-01T10:33:48;21.33;;;5.93;;
4547;SDS011;2286;51.570;7.090;2023-02-01T10:36:19;17.03;;;5.50;;
4547;SDS011;2286;51.570;7.090;2023-02-01T10:38:52;12.60;;;5.63;;
4547;SDS011;2286;51.570;7.090;2023-02-01T10:41:20;23.30;;;6.37;;
4547;SDS011;2286;51.570;7.090;2023-02-01T10:43:49;21.37;;;5.90;;
4547;SDS011;2286;51.570;7.090;2023-02-01T10:46:23;20.60;;;5.70;;
4547;SDS011;2286;51.570;7.090;2023-02-01T10:48:50;10.63;;;4.67;;
4547;SDS011;2286;51.570;7.090;2023-02-01T10:51:21;25.07;;;5.90;;
4547;SDS011;2286;51.570;7.090;2023-02-01T10:53:50;20.63;;;5.80;;
4547;SDS011;2286;51.570;7.090;2023-02-01T10:56:22;17.23;;;5.80;;
4547;SDS011;2286;51.570;7.090;2023-02-01T10:58:50;16.03;;;6.10;;
4547;SDS011;2286;51.570;7.090;2023-02-01T11:01:19;19.77;;;6.20;;
4547;SDS011;2286;51.570;7.090;2023-02-01T11:03:53;17.80;;;5.57;;
4547;SDS011;2286;51.570;7.090;2023-02-01T11:06:24;17.80;;;5.63;;
4547;SDS011;2286;51.570;7.090;2023-02-01T11:08:54;17.73;;;5.87;;
4547;SDS011;2286;51.570;7.090;2023-02-01T11:11:22;16.23;;;5.70;;
4547;SDS011;2286;51.570;7.090;2023-02-01T11:13:54;17.50;;;5.50;;
4547;SDS011;2286;51.570;7.090;2023-02-01T11:16:28;15.63;;;6.13;;
4547;SDS011;2286;51.570;7.090;2023-02-01T11:19:00;13.13;;;5.13;;
4547;SDS011;2286;51.570;7.090;2023-02-01T11:21:27;17.33;;;5.60;;
4547;SDS011;2286;51.570;7.090;2023-02-01T11:23:53;17.03;;;4.53;;
4547;SDS011;2286;51.570;7.090;2023-02-01T11:26:21;22.00;;;5.67;;
4547;SDS011;2286;51.570;7.090;2023-02-01T11:28:54;18.10;;;6.23;;
4547;SDS011;2286;51.570;7.090;2023-02-01T11:31:24;11.77;;;5.23;;
4547;SDS011;2286;51.570;7.090;2023-02-01T11:33:53;13.60;;;6.10;;
4547;SDS011;2286;51.570;7.090;2023-02-01T11:36:26;19.80;;;6.07;;
4547;SDS011;2286;51.570;7.090;2023-02-01T11:38:54;14.87;;;5.37;;
4547;SDS011;2286;51.570;7.090;2023-02-01T11:41:40;15.70;;;5.47;;
4547;SDS011;2286;51.570;7.090;2023-02-01T11:44:15;18.60;;;6.50;;
4547;SDS011;2286;51.570;7.090;2023-02-01T11:46:47;18.20;;;5.70;;
4547;SDS011;2286;51.570;7.090;2023-02-01T11:49:19;17.37;;;4.97;;
4547;SDS011;2286;51.570;7.090;2023-02-01T11:51:54;14.17;;;5.97;;
4547;SDS011;2286;51.570;7.090;2023-02-01T11:54:41;17.87;;;7.20;;
4547;SDS011;2286;51.570;7.090;2023-02-01T11:57:21;19.33;;;5.67;;
4547;SDS011;2286;51.570;7.090;2023-02-01T12:00:02;19.33;;;6.30;;
4547;SDS011;2286;51.570;7.090;2023-02-01T12:05:38;16.80;;;6.10;;
4547;SDS011;2286;51.570;7.090;2023-02-01T12:08:25;20.53;;;4.53;;
4547;SDS011;2286;51.570;7.090;2023-02-01T12:11:08;23.30;;;6.53;;
4547;SDS011;2286;51.570;7.090;2023-02-01T12:13:50;16.93;;;5.03;;
4547;SDS011;2286;51.570;7.090;2023-02-01T12:16:28;23.93;;;10.10;;
4547;SDS011;2286;51.570;7.090;2023-02-01T12:19:09;24.40;;;7.43;;
4547;SDS011;2286;51.570;7.090;2023-02-01T12:21:57;15.27;;;6.17;;
4547;SDS011;2286;51.570;7.090;2023-02-01T12:24:37;23.40;;;5.90;;
4547;SDS011;2286;51.570;7.090;2023-02-01T12:27:25;10.97;;;3.23;;
4547;SDS011;2286;51.570;7.090;2023-02-01T12:30:24;18.73;;;6.50;;
4547;SDS011;2286;51.570;7.090;2023-02-01T12:33:25;21.43;;;2.20;;
4547;SDS011;2286;51.570;7.090;2023-02-01T12:36:03;0.73;;;0.70;;
4547;SDS011;2286;51.570;7.090;2023-02-01T12:38:41;0.40;;;0.30;;
4547;SDS011;2286;51.570;7.090;2023-02-01T12:44:17;0.40;;;0.30;;
4547;SDS011;2286;51.570;7.090;2023-02-01T12:46:52;9.30;;;1.23;;
4547;SDS011;2286;51.570;7.090;2023-02-01T12:49:23;5.40;;;1.53;;
4547;SDS011;2286;51.570;7.090;2023-02-01T12:51:59;0.93;;;0.83;;
4547;SDS011;2286;51.570;7.090;2023-02-01T12:54:31;0.70;;;0.70;;
4547;SDS011;2286;51.570;7.090;2023-02-01T12:57:04;0.50;;;0.40;;
4547;SDS011;2286;51.570;7.090;2023-02-01T12:59:36;2.97;;;1.63;;
4547;SDS011;2286;51.570;7.090;2023-02-01T13:02:11;0.67;;;0.67;;
4547;SDS011;2286;51.570;7.090;2023-02-01T13:04:42;1.13;;;1.13;;
4547;SDS011;2286;51.570;7.090;2023-02-01T13:07:18;0.40;;;0.30;;
4547;SDS011;2286;51.570;7.090;2023-02-01T13:09:49;2.40;;;2.20;;
4547;SDS011;2286;51.570;7.090;2023-02-01T13:12:22;0.40;;;0.30;;
4547;SDS011;2286;51.570;7.090;2023-02-01T13:14:55;0.40;;;0.30;;
4547;SDS011;2286;51.570;7.090;2023-02-01T13:17:26;0.67;;;0.67;;
4547;SDS011;2286;51.570;7.090;2023-02-01T13:19:57;2.00;;;1.30;;
4547;SDS011;2286;51.570;7.090;2023-02-01T13:22:29;0.50;;;0.50;;
4547;SDS011;2286;51.570;7.090;2023-02-01T13:24:58;0.40;;;0.30;;
4547;SDS011;2286;51.570;7.090;2023-02-01T13:27:29;2.10;;;1.53;;
4547;SDS011;2286;51.570;7.090;2023-02-01T13:29:58;3.67;;;3.43;;
4547;SDS011;2286;51.570;7.090;2023-02-01T13:32:38;0.40;;;0.30;;
4547;SDS011;2286;51.570;7.090;2023-02-01T13:38:43;0.70;;;0.60;;
4547;SDS011;2286;51.570;7.090;2023-02-01T13:41:31;0.40;;;0.30;;
4547;SDS011;2286;51.570;7.090;2023-02-01T13:44:04;0.43;;;0.43;;
4547;SDS011;2286;51.570;7.090;2023-02-01T13:46:40;0.47;;;0.40;;
4547;SDS011;2286;51.570;7.090;2023-02-01T13:49:13;0.40;;;0.30;;
4547;SDS011;2286;51.570;7.090;2023-02-01T13:51:45;0.40;;;0.30;;
4547;SDS011;2286;51.570;7.090;2023-02-01T13:54:23;4.50;;;2.67;;
4547;SDS011;2286;51.570;7.090;2023-02-01T13:56:53;0.40;;;0.40;;
4547;SDS011;2286;51.570;7.090;2023-02-01T13:59:48;0.40;;;0.30;;
4547;SDS011;2286;51.570;7.090;2023-02-01T14:05:03;0.40;;;0.40;;
4547;SDS011;2286;51.570;7.090;2023-02-01T14:07:31;0.40;;;0.30;;
4547;SDS011;2286;51.570;7.090;2023-02-01T14:09:58;4.43;;;2.40;;
4547;SDS011;2286;51.570;7.090;2023-02-01T14:12:47;0.40;;;0.30;;
4547;SDS011;2286;51.570;7.090;2023-02-01T14:15:22;0.40;;;0.30;;
4547;SDS011;2286;51.570;7.090;2023-02-01T14:17:50;0.60;;;0.60;;
4547;SDS011;2286;51.570;7.090;2023-02-01T14:23:21;0.83;;;0.83;;
4547;SDS011;2286;51.570;7.090;2023-02-01T14:28:57;0.40;;;0.30;;
4547;SDS011;2286;51.570;7.090;2023-02-01T14:31:38;0.40;;;0.30;;
4547;SDS011;2286;51.570;7.090;2023-02-01T14:34:16;0.40;;;0.40;;
4547;SDS011;2286;51.570;7.090;2023-02-01T14:36:47;2.10;;;1.03;;
4547;SDS011;2286;51.570;7.090;2023-02-01T14:39:31;0.40;;;0.30;;
4547;SDS011;2286;51.570;7.090;2023-02-01T14:42:04;0.90;;;0.90;;
4547;SDS011;2286;51.570;7.090;2023-02-01T14:44:41;0.40;;;0.40;;
4547;SDS011;2286;51.570;7.090;2023-02-01T14:47:09;0.40;;;0.30;;
4547;SDS011;2286;51.570;7.090;2023-02-01T14:50:10;0.93;;;0.93;;
4547;SDS011;2286;51.570;7.090;2023-02-01T14:52:50;0.40;;;0.40;;
4547;SDS011;2286;51.570;7.090;2023-02-01T14:55:27;0.40;;;0.40;;
4547;SDS011;2286;51.570;7.090;2023-02-01T14:58:00;0.40;;;0.40;;
4547;SDS011;2286;51.570;7.090;2023-02-01T15:00:32;1.33;;;1.23;;
4547;SDS011;2286;51.570;7.090;2023-02-01T15:03:13;0.40;;;0.40;;
4547;SDS011;2286;51.570;7.090;2023-02-01T15:05:54;0.60;;;0.60;;
4547;SDS011;2286;51.570;7.090;2023-02-01T15:08:23;19.60;;;4.43;;
4547;SDS011;2286;51.570;7.090;2023-02-01T15:10:54;20.40;;;5.50;;
4547;SDS011;2286;51.570;7.090;2023-02-01T15:13:23;17.03;;;4.10;;
4547;SDS011;2286;51.570;7.090;2023-02-01T15:16:03;15.20;;;5.23;;
4547;SDS011;2286;51.570;7.090;2023-02-01T15:18:31;20.03;;;5.47;;
4547;SDS011;2286;51.570;7.090;2023-02-01T15:20:59;18.77;;;4.70;;
4547;SDS011;2286;51.570;7.090;2023-02-01T15:23:27;15.37;;;4.30;;
4547;SDS011;2286;51.570;7.090;2023-02-01T15:25:55;13.10;;;4.60;;
4547;SDS011;2286;51.570;7.090;2023-02-01T15:28:21;17.07;;;4.70;;
4547;SDS011;2286;51.570;7.090;2023-02-01T15:30:53;16.73;;;6.30;;
4547;SDS011;2286;51.570;7.090;2023-02-01T15:33:23;13.43;;;5.20;;
4547;SDS011;2286;51.570;7.090;2023-02-01T15:35:51;13.97;;;4.53;;
4547;SDS011;2286;51.570;7.090;2023-02-01T15:38:30;12.03;;;4.93;;
4547;SDS011;2286;51.570;7.090;2023-02-01T15:41:01;13.47;;;3.90;;
4547;SDS011;2286;51.570;7.090;2023-02-01T15:43:31;16.30;;;5.07;;
4547;SDS011;2286;51.570;7.090;2023-02-01T15:46:00;13.90;;;4.90;;
4547;SDS011;2286;51.570;7.090;2023-02-01T15:48:33;16.60;;;4.73;;
4547;SDS011;2286;51.570;7.090;2023-02-01T15:51:03;20.73;;;5.93;;
4547;SDS011;2286;51.570;7.090;2023-02-01T15:53:30;17.63;;;4.90;;